createdAt,value
2022-12-31T00:00:32.786Z,68.75
2022-12-31T00:03:00.069Z,69.56
2022-12-31T00:05:27.058Z,68.50
2022-12-31T00:07:53.946Z,67.62
2022-12-31T00:10:21.325Z,67.22
2022-12-31T00:12:48.214Z,67.10
2022-12-31T00:15:15.169Z,67.79
2022-12-31T00:17:42.112Z,67.75
2022-12-31T00:20:09.275Z,66.81
2022-12-31T00:22:36.267Z,67.43
2022-12-31T00:25:04.413Z,68.88
2022-12-31T00:27:32.399Z,69.44
2022-12-31T00:30:04.267Z,68.88
2022-12-31T00:32:32.234Z,68.89
2022-12-31T00:34:59.201Z,69.20
2022-12-31T00:37:26.065Z,69.80
2022-12-31T00:39:53.023Z,69.78
2022-12-31T00:42:19.930Z,69.72
2022-12-31T00:44:46.905Z,69.61
2022-12-31T00:47:13.959Z,68.76
2022-12-31T00:49:40.872Z,68.87
2022-12-31T00:52:07.824Z,68.40
2022-12-31T00:54:34.847Z,67.83
2022-12-31T00:57:01.730Z,67.92
2022-12-31T00:59:28.708Z,68.97
2022-12-31T01:01:55.737Z,68.69
2022-12-31T01:04:22.675Z,68.03
2022-12-31T01:06:49.637Z,67.94
2022-12-31T01:09:17.768Z,67.95
2022-12-31T01:11:45.290Z,68.83
2022-12-31T01:14:15.537Z,68.78
2022-12-31T01:16:45.485Z,69.54
2022-12-31T01:19:15.975Z,69.40
2022-12-31T01:21:44.609Z,69.46
2022-12-31T01:24:12.562Z,69.27
2022-12-31T01:26:40.132Z,68.49
2022-12-31T01:29:08.452Z,68.47
2022-12-31T01:31:36.638Z,69.92
2022-12-31T01:34:04.045Z,70.78
2022-12-31T01:36:32.522Z,70.92
2022-12-31T01:39:01.529Z,70.21
2022-12-31T01:41:32.896Z,70.22
2022-12-31T01:44:23.739Z,69.76
2022-12-31T01:46:57.477Z,69.56
2022-12-31T01:49:31.344Z,68.67
2022-12-31T01:52:07.317Z,69.06
2022-12-31T01:54:39.857Z,68.20
2022-12-31T01:57:09.709Z,68.89
2022-12-31T01:59:36.861Z,68.46
2022-12-31T02:02:04.692Z,68.15
2022-12-31T02:04:31.986Z,68.47
2022-12-31T02:07:02.851Z,68.13
2022-12-31T02:09:31.587Z,68.73
2022-12-31T02:11:58.611Z,68.89
2022-12-31T02:14:34.797Z,68.27
2022-12-31T02:17:30.886Z,69.27
2022-12-31T02:20:15.974Z,68.08
2022-12-31T02:23:00.758Z,68.63
2022-12-31T02:26:05.013Z,68.20
2022-12-31T02:28:43.632Z,67.93
2022-12-31T02:31:19.511Z,68.15
2022-12-31T02:34:13.803Z,68.01
2022-12-31T02:36:44.483Z,69.16
2022-12-31T02:39:13.499Z,68.72
2022-12-31T02:41:53.946Z,69.25
2022-12-31T02:44:33.799Z,69.35
2022-12-31T02:47:09.241Z,68.45
2022-12-31T02:49:54.616Z,69.25
2022-12-31T02:52:27.168Z,69.42
2022-12-31T02:55:26.839Z,69.81
2022-12-31T02:58:13.120Z,69.26
2022-12-31T03:01:05.742Z,69.04
2022-12-31T03:03:33.344Z,68.45
2022-12-31T03:06:03.353Z,68.42
2022-12-31T03:08:30.585Z,69.09
2022-12-31T03:10:57.865Z,68.58
2022-12-31T03:13:25.093Z,67.64
2022-12-31T03:15:51.976Z,66.91
2022-12-31T03:18:39.588Z,67.30
2022-12-31T03:21:31.088Z,68.36
2022-12-31T03:24:16.668Z,70.15
2022-12-31T03:26:43.623Z,70.56
2022-12-31T03:29:10.613Z,69.41
2022-12-31T03:31:37.734Z,69.05
2022-12-31T03:34:04.780Z,68.46
2022-12-31T03:36:31.693Z,70.78
2022-12-31T03:38:58.596Z,71.03
2022-12-31T03:41:25.501Z,71.04
2022-12-31T03:43:52.532Z,70.45
2022-12-31T03:46:19.481Z,69.27
2022-12-31T03:48:46.530Z,67.01
2022-12-31T03:51:13.596Z,65.76
2022-12-31T03:53:40.466Z,65.51
2022-12-31T03:56:07.570Z,66.15
2022-12-31T03:58:34.477Z,67.59
2022-12-31T04:01:01.474Z,66.39
2022-12-31T04:03:28.857Z,64.09
2022-12-31T04:05:56.216Z,64.30
2022-12-31T04:08:23.791Z,64.70
2022-12-31T04:10:50.805Z,65.13
2022-12-31T04:13:17.651Z,64.55
2022-12-31T04:15:44.610Z,63.77
2022-12-31T04:18:11.798Z,62.76
2022-12-31T04:20:38.732Z,61.82
2022-12-31T04:23:05.669Z,61.27
2022-12-31T04:25:32.825Z,60.66
2022-12-31T04:27:59.717Z,61.76
2022-12-31T04:30:26.650Z,61.26
2022-12-31T04:32:53.524Z,61.51
2022-12-31T04:35:20.728Z,61.58
2022-12-31T04:37:47.585Z,61.96
2022-12-31T04:40:14.538Z,62.04
2022-12-31T04:42:41.949Z,62.79
2022-12-31T04:45:10.329Z,62.96
2022-12-31T04:47:37.238Z,63.42
2022-12-31T04:50:04.931Z,65.35
2022-12-31T04:52:35.681Z,66.47
2022-12-31T04:55:06.125Z,66.31
2022-12-31T04:57:33.805Z,65.59
2022-12-31T05:00:00.724Z,63.62
2022-12-31T05:02:30.233Z,63.27
2022-12-31T05:04:57.247Z,62.88
2022-12-31T05:07:24.098Z,62.48
2022-12-31T05:09:51.599Z,62.08
2022-12-31T05:12:18.617Z,61.68
2022-12-31T05:14:45.532Z,62.35
2022-12-31T05:17:12.470Z,62.20
2022-12-31T05:19:39.368Z,62.38
2022-12-31T05:22:24.742Z,64.08
2022-12-31T05:24:52.459Z,67.02
2022-12-31T05:27:19.516Z,67.61
2022-12-31T05:29:46.485Z,66.60
2022-12-31T05:32:13.457Z,66.49
2022-12-31T05:34:40.338Z,65.20
2022-12-31T05:37:07.250Z,65.67
2022-12-31T05:39:36.348Z,65.56
2022-12-31T05:42:03.443Z,65.57
2022-12-31T05:44:30.366Z,65.96
2022-12-31T05:46:57.256Z,65.19
2022-12-31T05:49:24.278Z,64.59
2022-12-31T05:51:51.181Z,64.91
2022-12-31T05:54:18.153Z,66.19
2022-12-31T05:56:45.655Z,65.83
2022-12-31T05:59:12.632Z,65.22
2022-12-31T06:01:39.565Z,65.96
2022-12-31T06:04:06.561Z,66.49
2022-12-31T06:06:33.566Z,66.24
2022-12-31T06:09:00.548Z,66.07
2022-12-31T06:11:27.474Z,65.47
2022-12-31T06:13:54.483Z,65.62
2022-12-31T06:16:21.443Z,66.00
2022-12-31T06:18:51.059Z,64.92
2022-12-31T06:21:19.550Z,65.19
2022-12-31T06:23:46.806Z,64.30
2022-12-31T06:26:13.981Z,63.99
2022-12-31T06:28:41.105Z,64.06
2022-12-31T06:31:11.249Z,63.18
2022-12-31T06:33:38.513Z,62.10
2022-12-31T06:36:08.627Z,62.05
2022-12-31T06:38:38.250Z,62.49
2022-12-31T06:41:10.429Z,62.02
2022-12-31T06:43:38.895Z,61.72
2022-12-31T06:46:07.975Z,62.82
2022-12-31T06:48:35.269Z,62.39
2022-12-31T06:51:15.033Z,61.90
2022-12-31T06:53:45.135Z,61.88
2022-12-31T06:56:26.495Z,63.10
2022-12-31T06:58:58.170Z,63.72
2022-12-31T07:01:44.619Z,62.83
2022-12-31T07:04:33.428Z,62.51
2022-12-31T07:07:14.580Z,62.33
2022-12-31T07:09:53.440Z,62.54
2022-12-31T07:12:29.535Z,62.01
2022-12-31T07:15:05.608Z,61.52
2022-12-31T07:18:17.428Z,63.43
2022-12-31T07:20:44.767Z,64.01
2022-12-31T07:23:11.935Z,62.78
2022-12-31T07:25:44.672Z,61.83
2022-12-31T07:28:20.659Z,61.85
2022-12-31T07:31:25.794Z,60.44
2022-12-31T07:33:59.573Z,60.34
2022-12-31T07:36:50.527Z,59.65
2022-12-31T07:39:27.693Z,60.68
2022-12-31T07:42:19.545Z,58.85
2022-12-31T07:44:57.729Z,58.60
2022-12-31T07:47:27.746Z,57.43
2022-12-31T07:49:56.518Z,57.78
2022-12-31T07:52:24.094Z,57.61
2022-12-31T07:54:51.031Z,58.46
2022-12-31T07:57:20.731Z,58.50
2022-12-31T08:00:23.057Z,56.81
2022-12-31T08:03:23.746Z,57.30
2022-12-31T08:06:17.586Z,56.74
2022-12-31T08:09:03.257Z,57.51
2022-12-31T08:11:56.962Z,56.48
2022-12-31T08:14:26.943Z,55.59
2022-12-31T08:16:54.505Z,54.95
2022-12-31T08:19:27.392Z,54.87
2022-12-31T08:22:12.773Z,55.21
2022-12-31T08:24:58.407Z,54.65
2022-12-31T08:27:40.644Z,54.91
2022-12-31T08:30:09.294Z,53.98
2022-12-31T08:33:20.184Z,53.71
2022-12-31T08:36:19.372Z,53.66
2022-12-31T08:39:03.272Z,54.30
2022-12-31T08:41:43.173Z,54.17
2022-12-31T08:44:41.122Z,53.19
2022-12-31T08:47:26.450Z,52.82
2022-12-31T08:49:53.740Z,53.17
2022-12-31T08:52:25.052Z,52.27
2022-12-31T08:54:52.794Z,52.07
2022-12-31T08:57:46.258Z,51.30
2022-12-31T09:00:16.930Z,49.93
2022-12-31T09:02:55.654Z,49.20
2022-12-31T09:05:31.040Z,50.84
2022-12-31T09:08:00.876Z,49.97
2022-12-31T09:10:32.792Z,50.10
2022-12-31T09:13:23.880Z,49.30
2022-12-31T09:16:16.701Z,48.32
2022-12-31T09:18:45.013Z,49.13
2022-12-31T09:21:16.312Z,49.08
2022-12-31T09:23:43.748Z,49.43
2022-12-31T09:26:38.185Z,48.38
2022-12-31T09:29:27.471Z,47.51
2022-12-31T09:32:14.679Z,48.66
2022-12-31T09:34:50.596Z,47.45
2022-12-31T09:37:43.233Z,48.28
2022-12-31T09:40:22.383Z,46.04
2022-12-31T09:43:05.852Z,46.67
2022-12-31T10:17:41.363Z,47.33
2022-12-31T10:20:17.501Z,46.17
2022-12-31T10:22:44.326Z,45.67
2022-12-31T10:25:38.381Z,45.47
2022-12-31T10:28:29.615Z,45.82
2022-12-31T10:31:28.540Z,46.25
2022-12-31T10:34:24.608Z,45.85
2022-12-31T10:36:54.711Z,45.65
2022-12-31T10:39:38.409Z,44.78
2022-12-31T10:42:17.289Z,45.94
2022-12-31T10:45:32.426Z,46.46
2022-12-31T10:48:26.816Z,45.58
2022-12-31T10:50:59.423Z,44.73
2022-12-31T10:53:37.951Z,45.56
2022-12-31T10:56:35.401Z,45.97
2022-12-31T10:59:25.327Z,46.13
2022-12-31T11:01:55.010Z,45.76
2022-12-31T11:04:57.080Z,45.55
2022-12-31T11:07:54.849Z,44.66
2022-12-31T11:10:48.721Z,45.00
2022-12-31T11:13:40.695Z,44.87
2022-12-31T11:16:07.969Z,44.70
2022-12-31T11:18:52.129Z,44.22
2022-12-31T11:21:27.967Z,43.81
2022-12-31T11:24:12.980Z,44.23
2022-12-31T11:26:55.603Z,44.02
2022-12-31T11:29:59.918Z,44.18
2022-12-31T11:32:31.869Z,43.89
2022-12-31T11:35:13.642Z,44.40
2022-12-31T11:37:56.772Z,44.46
2022-12-31T11:40:32.993Z,44.66
2022-12-31T11:43:05.099Z,44.05
2022-12-31T11:45:54.203Z,44.05
2022-12-31T11:48:39.140Z,43.17
2022-12-31T11:51:50.190Z,44.91
2022-12-31T11:54:26.385Z,46.01
2022-12-31T11:57:11.517Z,45.42
2022-12-31T11:59:38.674Z,45.95
2022-12-31T12:02:29.206Z,46.08
2022-12-31T12:05:06.506Z,45.72
2022-12-31T12:07:37.743Z,46.21
2022-12-31T12:10:17.909Z,45.90
2022-12-31T12:12:44.950Z,45.86
2022-12-31T12:15:21.680Z,45.79
2022-12-31T12:17:57.605Z,46.58
2022-12-31T12:20:55.849Z,47.27
2022-12-31T12:23:25.605Z,46.77
2022-12-31T12:25:53.163Z,46.43
2022-12-31T12:28:21.534Z,47.27
2022-12-31T12:31:18.987Z,47.45
2022-12-31T12:33:47.883Z,47.85
2022-12-31T12:36:17.329Z,47.08
2022-12-31T12:38:45.070Z,46.64
2022-12-31T12:41:25.484Z,47.20
2022-12-31T12:44:14.409Z,46.52
2022-12-31T12:46:49.189Z,46.71
2022-12-31T12:49:21.796Z,45.88
2022-12-31T12:52:06.457Z,46.81
2022-12-31T12:54:51.868Z,46.31
2022-12-31T12:57:31.677Z,46.73
2022-12-31T13:00:21.476Z,47.53
2022-12-31T13:03:25.217Z,48.08
2022-12-31T13:06:22.671Z,47.90
2022-12-31T13:09:07.963Z,47.27
2022-12-31T13:11:50.753Z,47.47
2022-12-31T13:14:40.990Z,47.78
2022-12-31T13:17:33.965Z,48.55
2022-12-31T13:20:15.413Z,48.41
2022-12-31T13:22:52.510Z,48.99
2022-12-31T13:25:26.868Z,49.04
2022-12-31T13:27:58.599Z,49.95
2022-12-31T13:30:33.374Z,50.04
2022-12-31T13:33:20.730Z,50.52
2022-12-31T13:35:57.899Z,49.98
2022-12-31T13:38:30.654Z,50.21
2022-12-31T13:40:57.604Z,50.79
2022-12-31T13:43:39.606Z,51.03
2022-12-31T13:46:30.020Z,51.55
2022-12-31T13:49:01.723Z,51.49
2022-12-31T13:51:42.134Z,51.56
2022-12-31T13:54:45.796Z,51.44
2022-12-31T13:57:27.277Z,52.00
2022-12-31T14:00:02.422Z,52.84
2022-12-31T14:02:43.431Z,53.04
2022-12-31T14:05:32.527Z,52.86
2022-12-31T14:08:01.952Z,52.83
2022-12-31T14:10:45.177Z,53.20
2022-12-31T14:13:34.151Z,53.75
2022-12-31T14:16:23.449Z,54.20
2022-12-31T14:19:19.656Z,54.55
2022-12-31T14:21:58.760Z,53.94
2022-12-31T14:24:50.800Z,53.62
2022-12-31T14:27:33.256Z,54.05
2022-12-31T14:30:27.958Z,54.17
2022-12-31T14:32:57.859Z,54.76
2022-12-31T14:35:38.924Z,55.83
2022-12-31T14:38:18.532Z,55.92
2022-12-31T14:41:00.759Z,56.39
2022-12-31T14:43:45.490Z,57.42
2022-12-31T14:46:37.181Z,57.69
2022-12-31T14:49:22.390Z,58.42
2022-12-31T14:51:49.349Z,58.56
2022-12-31T14:54:42.906Z,58.22
2022-12-31T14:57:26.858Z,58.52
2022-12-31T15:00:38.344Z,58.32
2022-12-31T15:03:41.255Z,58.41
2022-12-31T15:06:23.726Z,58.57
2022-12-31T15:09:08.340Z,58.97
2022-12-31T15:11:38.159Z,58.20
2022-12-31T15:14:24.528Z,58.16
2022-12-31T15:16:57.860Z,58.52
2022-12-31T15:19:43.802Z,58.68
2022-12-31T15:22:35.012Z,58.88
2022-12-31T15:25:02.970Z,58.81
2022-12-31T15:27:42.427Z,57.88
2022-12-31T15:30:35.486Z,58.64
2022-12-31T15:33:08.835Z,58.17
2022-12-31T15:35:54.170Z,58.67
2022-12-31T15:38:38.630Z,59.69
2022-12-31T15:41:14.512Z,59.55
2022-12-31T15:43:51.106Z,59.41
2022-12-31T15:46:23.949Z,59.27
2022-12-31T15:49:04.244Z,60.52
2022-12-31T15:51:46.432Z,60.91
2022-12-31T15:54:38.498Z,61.17
2022-12-31T15:57:09.565Z,61.31
2022-12-31T15:59:38.353Z,61.93
2022-12-31T16:02:20.285Z,62.27
2022-12-31T16:04:48.711Z,62.50
2022-12-31T16:07:17.434Z,62.35
2022-12-31T16:09:51.104Z,63.24
2022-12-31T16:12:32.659Z,62.20
2022-12-31T16:15:01.028Z,62.63
2022-12-31T16:17:32.374Z,62.95
2022-12-31T16:20:00.873Z,64.24
2022-12-31T16:22:38.241Z,63.39
2022-12-31T16:27:55.197Z,62.79
2022-12-31T16:30:28.355Z,63.25
2022-12-31T16:33:00.159Z,64.22
2022-12-31T16:35:55.325Z,64.76
2022-12-31T16:38:23.241Z,64.72
2022-12-31T16:41:02.322Z,64.48
2022-12-31T16:43:40.821Z,64.59
2022-12-31T16:46:26.941Z,64.17
2022-12-31T16:49:07.534Z,64.51
2022-12-31T16:51:37.507Z,64.48
2022-12-31T16:54:04.883Z,65.39
2022-12-31T16:56:31.818Z,65.30
2022-12-31T16:59:06.514Z,65.64
2022-12-31T17:01:37.649Z,65.24
2022-12-31T17:04:11.684Z,64.10
2022-12-31T17:06:38.728Z,62.43
2022-12-31T17:09:14.563Z,63.76
2022-12-31T17:12:15.797Z,63.06
2022-12-31T17:14:51.374Z,63.87
2022-12-31T17:17:30.198Z,64.43
2022-12-31T17:20:00.415Z,63.40
2022-12-31T17:22:36.435Z,63.02
2022-12-31T17:25:05.662Z,63.49
2022-12-31T17:27:33.327Z,64.74
2022-12-31T17:30:22.138Z,65.33
2022-12-31T17:32:50.267Z,65.86
2022-12-31T17:35:42.084Z,66.36
2022-12-31T17:38:18.485Z,66.21
2022-12-31T17:40:52.007Z,65.32
2022-12-31T17:43:24.016Z,64.65
2022-12-31T17:45:52.909Z,63.17
2022-12-31T17:48:20.668Z,62.84
2022-12-31T17:50:53.498Z,62.46
2022-12-31T17:53:21.017Z,62.87
2022-12-31T17:55:51.225Z,65.18
2022-12-31T17:58:29.653Z,65.72
2022-12-31T18:00:58.722Z,65.86
2022-12-31T18:03:26.008Z,65.67
2022-12-31T18:05:53.248Z,66.41
2022-12-31T18:08:20.152Z,66.00
2022-12-31T18:10:47.364Z,66.46
2022-12-31T18:13:17.992Z,66.52
2022-12-31T18:15:45.405Z,65.80
2022-12-31T18:18:25.215Z,65.77
2022-12-31T18:21:05.341Z,65.44
2022-12-31T18:23:40.495Z,65.39
2022-12-31T18:26:09.970Z,65.32
2022-12-31T18:28:36.838Z,64.90
2022-12-31T18:31:03.852Z,64.18
2022-12-31T18:33:30.877Z,63.77
2022-12-31T18:36:08.685Z,63.41
2022-12-31T18:38:36.409Z,63.20
2022-12-31T18:41:04.385Z,64.11
2022-12-31T18:43:31.802Z,65.20
2022-12-31T18:45:59.154Z,65.05
2022-12-31T18:48:26.401Z,65.21
2022-12-31T18:50:53.769Z,65.49
2022-12-31T18:53:23.496Z,66.24
2022-12-31T18:55:51.965Z,66.16
2022-12-31T18:58:19.189Z,66.72
2022-12-31T19:00:48.033Z,67.35
2022-12-31T19:03:21.983Z,66.80
2022-12-31T19:05:51.128Z,66.99
2022-12-31T19:08:19.774Z,67.41
2022-12-31T19:10:48.035Z,67.44
2022-12-31T19:13:18.554Z,67.21
2022-12-31T19:15:51.471Z,67.36
2022-12-31T19:18:18.745Z,67.49
2022-12-31T19:20:46.207Z,68.03
2022-12-31T19:23:19.117Z,67.78
2022-12-31T19:25:47.744Z,67.20
2022-12-31T19:28:23.077Z,67.93
2022-12-31T19:30:50.640Z,67.27
2022-12-31T19:33:17.602Z,67.00
2022-12-31T19:35:45.418Z,67.42
2022-12-31T19:38:23.768Z,67.13
2022-12-31T19:40:52.887Z,67.59
2022-12-31T19:43:22.162Z,67.17
2022-12-31T19:45:50.436Z,66.84
2022-12-31T19:48:27.210Z,65.82
2022-12-31T19:50:59.220Z,66.30
2022-12-31T19:53:27.335Z,66.10
2022-12-31T19:55:54.753Z,64.92
2022-12-31T19:58:26.191Z,66.27
2022-12-31T20:01:01.253Z,65.57
2022-12-31T20:03:29.606Z,66.35
2022-12-31T20:06:07.958Z,66.43
2022-12-31T20:08:36.716Z,66.90
2022-12-31T20:11:15.521Z,68.23
2022-12-31T20:13:43.015Z,68.20
2022-12-31T20:16:13.189Z,68.28
2022-12-31T20:18:41.819Z,68.46
2022-12-31T20:21:14.633Z,68.73
2022-12-31T20:23:41.679Z,68.52
2022-12-31T20:26:09.276Z,68.33
2022-12-31T20:28:37.589Z,68.08
2022-12-31T20:31:09.674Z,68.24
2022-12-31T20:33:36.768Z,68.55
2022-12-31T20:36:09.542Z,69.20
2022-12-31T20:38:36.516Z,68.15
2022-12-31T20:41:09.516Z,68.73
2022-12-31T20:43:37.329Z,67.03
2022-12-31T20:46:15.816Z,66.28
2022-12-31T20:48:44.930Z,65.61
2022-12-31T20:51:13.267Z,66.10
2022-12-31T20:53:40.325Z,65.51
2022-12-31T20:56:09.787Z,65.15
2022-12-31T20:58:36.935Z,64.71
2022-12-31T21:01:07.448Z,64.42
2022-12-31T21:04:04.998Z,64.84
2022-12-31T21:06:26.744Z,64.08
2022-12-31T21:08:55.715Z,64.53
2022-12-31T21:11:41.705Z,65.85
2022-12-31T21:14:08.873Z,65.99
2022-12-31T21:16:36.224Z,65.69
2022-12-31T21:19:03.347Z,64.84
2022-12-31T21:21:30.281Z,64.52
2022-12-31T21:23:57.259Z,65.22
2022-12-31T21:26:24.154Z,65.80
2022-12-31T21:28:51.166Z,65.69
2022-12-31T21:31:18.092Z,66.40
2022-12-31T21:33:46.959Z,67.10
2022-12-31T21:36:14.452Z,66.26
2022-12-31T21:38:42.148Z,65.72
2022-12-31T21:41:33.216Z,64.71
2022-12-31T21:44:01.162Z,66.50
2022-12-31T21:46:28.267Z,67.47
2022-12-31T21:48:59.975Z,68.09
2022-12-31T21:51:28.083Z,68.98
2022-12-31T21:53:55.244Z,69.63
2022-12-31T21:56:22.947Z,69.67
2022-12-31T21:59:16.911Z,69.96
2022-12-31T22:02:02.686Z,70.16
2022-12-31T22:07:17.044Z,70.01
2022-12-31T22:09:43.904Z,70.55
2022-12-31T22:12:10.765Z,70.75
2022-12-31T22:14:37.710Z,69.50
2022-12-31T22:17:04.702Z,68.78
2022-12-31T22:19:33.736Z,68.99
2022-12-31T22:22:10.646Z,69.93
2022-12-31T22:24:37.537Z,70.55
2022-12-31T22:27:29.251Z,71.61
2022-12-31T22:29:51.384Z,71.43
2022-12-31T22:32:18.268Z,72.15
2022-12-31T22:34:45.246Z,72.51
2022-12-31T22:37:35.748Z,71.45
2022-12-31T22:39:59.099Z,71.42
2022-12-31T22:42:26.077Z,70.20
2022-12-31T22:44:53.173Z,70.22
2022-12-31T22:47:20.074Z,71.03
2022-12-31T22:49:46.981Z,70.69
2022-12-31T22:52:13.838Z,72.24
2022-12-31T22:54:40.750Z,70.21
2022-12-31T22:57:07.744Z,70.55
2022-12-31T22:59:34.734Z,71.26
2022-12-31T23:02:01.771Z,70.10
2022-12-31T23:04:28.790Z,69.13
2022-12-31T23:06:55.876Z,69.42
2022-12-31T23:09:41.479Z,69.07
2022-12-31T23:12:09.293Z,69.93
2022-12-31T23:14:55.086Z,68.59
2022-12-31T23:17:45.180Z,69.09
2022-12-31T23:20:35.227Z,68.68
2022-12-31T23:23:11.598Z,67.83
2022-12-31T23:25:42.935Z,66.93
2022-12-31T23:28:13.685Z,67.62
2022-12-31T23:30:41.403Z,69.00
2022-12-31T23:33:14.767Z,70.04
2022-12-31T23:35:41.734Z,68.93
2022-12-31T23:38:08.750Z,67.73
2022-12-31T23:40:35.804Z,66.95
2022-12-31T23:43:04.483Z,65.76
2022-12-31T23:45:33.469Z,65.42
2022-12-31T23:48:01.114Z,66.50
2022-12-31T23:50:28.325Z,67.79
2022-12-31T23:52:55.232Z,67.97
2022-12-31T23:55:22.212Z,66.15
2022-12-31T23:57:49.110Z,68.45
